createdAt,value
2019-06-25T03:30:14.310Z,100.00
2019-06-25T03:32:44.529Z,100.00
2019-06-25T03:35:14.838Z,100.00
2019-06-25T03:37:45.116Z,100.00
2019-06-25T03:40:17.175Z,100.00
2019-06-25T03:42:47.533Z,100.00
2019-06-25T03:45:19.624Z,100.00
2019-06-25T03:47:49.824Z,100.00
2019-06-25T03:50:19.977Z,100.00
2019-06-25T03:52:50.297Z,100.00
2019-06-25T03:55:20.619Z,100.00
2019-06-25T03:57:50.845Z,100.00
2019-06-25T04:00:23.540Z,100.00
2019-06-25T04:02:56.129Z,100.00
2019-06-25T04:05:26.261Z,100.00
2019-06-25T04:07:56.407Z,100.00
2019-06-25T04:10:26.546Z,100.00
2019-06-25T04:12:57.611Z,100.00
2019-06-25T04:15:27.905Z,100.00
2019-06-25T04:17:58.145Z,100.00
2019-06-25T04:20:28.323Z,100.00
2019-06-25T04:22:58.623Z,100.00
2019-06-25T04:25:28.838Z,100.00
2019-06-25T04:27:59.033Z,100.00
2019-06-25T04:30:29.301Z,100.00
2019-06-25T04:35:30.576Z,100.00
2019-06-25T04:38:00.761Z,100.00
2019-06-25T04:40:30.960Z,100.00
2019-06-25T04:43:01.344Z,100.00
2019-06-25T04:45:31.501Z,100.00
2019-06-25T04:48:02.533Z,100.00
2019-06-25T04:50:32.726Z,100.00
2019-06-25T04:53:02.984Z,100.00
2019-06-25T04:55:34.416Z,100.00
2019-06-25T04:58:04.744Z,100.00
2019-06-25T05:00:35.728Z,100.00
2019-06-25T05:03:05.942Z,100.00
2019-06-25T05:05:36.274Z,100.00
2019-06-25T05:08:06.674Z,100.00
2019-06-25T05:10:38.214Z,100.00
2019-06-25T05:13:08.438Z,100.00
2019-06-25T05:15:40.260Z,100.00
2019-06-25T05:18:10.411Z,100.00
2019-06-25T05:20:42.208Z,100.00
2019-06-25T05:23:12.870Z,100.00
2019-06-25T05:25:44.104Z,100.00
2019-06-25T05:28:14.420Z,100.00
2019-06-25T05:30:44.773Z,100.00
2019-06-25T05:33:15.247Z,100.00
2019-06-25T05:35:50.439Z,100.00
2019-06-25T05:38:21.519Z,100.00
2019-06-25T05:40:52.760Z,100.00
2019-06-25T05:43:22.988Z,100.00
2019-06-25T05:45:53.361Z,100.00
2019-06-25T05:48:23.682Z,100.00
2019-06-25T05:50:54.705Z,100.00
2019-06-25T05:53:25.829Z,100.00
2019-06-25T05:55:56.022Z,100.00
2019-06-25T05:58:26.239Z,100.00
2019-06-25T06:00:56.570Z,100.00
2019-06-25T06:03:26.726Z,100.00
2019-06-25T06:05:57.413Z,100.00
2019-06-25T06:08:28.758Z,100.00
2019-06-25T06:10:58.952Z,100.00
2019-06-25T06:13:30.740Z,99.65
2019-06-25T06:16:00.903Z,100.00
2019-06-25T06:18:39.502Z,99.70
2019-06-25T06:21:09.885Z,98.59
2019-06-25T06:23:40.300Z,96.58
2019-06-25T06:26:17.999Z,97.00
2019-06-25T06:28:43.106Z,95.01
2019-06-25T06:31:17.642Z,95.96
2019-06-25T06:33:49.973Z,95.33
2019-06-25T06:36:18.853Z,93.01
2019-06-25T06:38:49.129Z,94.65
2019-06-25T06:41:19.356Z,94.27
2019-06-25T06:43:49.623Z,92.63
2019-06-25T06:46:19.906Z,91.81
2019-06-25T06:48:50.070Z,92.26
2019-06-25T06:51:20.403Z,91.82
2019-06-25T06:53:50.605Z,91.94
2019-06-25T06:56:20.820Z,91.76
2019-06-25T06:58:51.532Z,92.42
2019-06-25T07:01:21.739Z,91.14
2019-06-25T07:03:53.688Z,90.29
2019-06-25T07:06:24.036Z,90.43
2019-06-25T07:08:54.330Z,89.45
2019-06-25T07:11:24.775Z,88.38
2019-06-25T07:13:54.967Z,89.07
2019-06-25T07:16:25.134Z,89.33
2019-06-25T07:18:56.191Z,88.67
2019-06-25T07:21:27.169Z,88.41
2019-06-25T07:23:57.339Z,87.07
2019-06-25T07:26:27.502Z,88.06
2019-06-25T07:28:58.697Z,86.47
2019-06-25T07:31:29.772Z,86.32
2019-06-25T07:34:09.134Z,86.34
2019-06-25T07:36:31.789Z,86.30
2019-06-25T07:39:01.890Z,85.94
2019-06-25T07:41:32.083Z,84.37
2019-06-25T07:44:02.179Z,88.00
2019-06-25T07:46:32.535Z,86.50
2019-06-25T07:49:02.866Z,85.54
2019-06-25T07:51:33.187Z,85.71
2019-06-25T07:54:03.322Z,84.76
2019-06-25T07:56:36.984Z,84.81
2019-06-25T07:59:05.394Z,83.16
2019-06-25T08:01:37.365Z,82.57
2019-06-25T08:04:07.623Z,84.03
2019-06-25T08:06:37.779Z,82.84
2019-06-25T08:09:09.610Z,82.45
2019-06-25T08:11:40.696Z,83.17
2019-06-25T08:14:10.874Z,82.91
2019-06-25T08:16:41.093Z,82.52
2019-06-25T08:19:11.285Z,80.65
2019-06-25T08:21:41.553Z,80.92
2019-06-25T08:24:12.373Z,81.03
2019-06-25T08:26:42.735Z,80.38
2019-06-25T08:29:14.746Z,79.72
2019-06-25T08:31:44.925Z,79.77
2019-06-25T08:34:15.150Z,81.48
2019-06-25T08:36:46.269Z,79.83
2019-06-25T08:39:17.200Z,78.83
2019-06-25T08:41:47.390Z,78.54
2019-06-25T08:44:17.644Z,78.90
2019-06-25T08:46:47.844Z,80.35
2019-06-25T08:49:21.903Z,80.24
2019-06-25T08:51:52.099Z,77.01
2019-06-25T08:54:22.402Z,78.22
2019-06-25T08:56:52.675Z,79.32
2019-06-25T08:59:25.969Z,80.50
2019-06-25T09:01:54.731Z,78.12
2019-06-25T09:04:25.020Z,79.64
2019-06-25T09:06:55.221Z,77.46
2019-06-25T09:09:26.191Z,76.66
2019-06-25T09:11:57.180Z,77.65
2019-06-25T09:14:27.582Z,76.84
2019-06-25T09:16:59.685Z,74.88
2019-06-25T09:19:30.077Z,75.40
2019-06-25T09:22:00.230Z,76.38
2019-06-25T09:24:31.573Z,73.22
2019-06-25T09:27:03.287Z,72.81
2019-06-25T09:29:34.345Z,74.57
2019-06-25T09:32:05.405Z,73.23
2019-06-25T09:34:36.150Z,73.50
2019-06-25T09:37:06.584Z,73.04
2019-06-25T09:39:41.633Z,73.37
2019-06-25T09:42:10.087Z,71.67
2019-06-25T09:44:40.144Z,76.30
2019-06-25T09:47:10.331Z,73.09
2019-06-25T09:49:40.868Z,73.37
2019-06-25T09:52:11.055Z,71.93
2019-06-25T09:54:41.657Z,71.63
2019-06-25T09:57:11.859Z,69.77
2019-06-25T09:59:42.090Z,72.09
2019-06-25T10:02:12.209Z,72.09
2019-06-25T10:04:42.498Z,72.48
2019-06-25T10:07:15.589Z,70.38
2019-06-25T10:09:44.679Z,69.18
2019-06-25T10:12:15.549Z,69.58
2019-06-25T10:14:45.742Z,70.98
2019-06-25T10:17:16.693Z,70.24
2019-06-25T10:19:46.881Z,72.03
2019-06-25T10:22:17.894Z,69.98
2019-06-25T10:24:48.088Z,69.18
2019-06-25T10:27:18.324Z,68.96
2019-06-25T10:29:49.452Z,72.36
2019-06-25T10:32:20.519Z,68.18
2019-06-25T10:34:50.633Z,67.87
2019-06-25T10:37:21.570Z,69.23
2019-06-25T10:39:51.804Z,69.79
2019-06-25T10:42:23.024Z,66.77
2019-06-25T10:44:53.239Z,67.83
2019-06-25T10:47:23.537Z,69.83
2019-06-25T10:49:53.830Z,67.05
2019-06-25T10:52:24.807Z,65.90
2019-06-25T10:54:54.993Z,67.85
2019-06-25T10:57:25.374Z,63.51
2019-06-25T10:59:55.837Z,65.19
2019-06-25T11:02:29.108Z,67.21
2019-06-25T11:04:58.086Z,62.31
2019-06-25T11:07:29.034Z,66.03
2019-06-25T11:09:59.252Z,65.60
2019-06-25T11:12:30.274Z,65.63
2019-06-25T11:15:01.349Z,65.09
2019-06-25T11:17:31.965Z,65.40
2019-06-25T11:20:02.154Z,65.69
2019-06-25T11:22:32.516Z,62.19
2019-06-25T11:25:02.770Z,62.39
2019-06-25T11:27:32.925Z,62.16
2019-06-25T11:30:04.013Z,62.48
2019-06-25T11:32:35.191Z,62.62
2019-06-25T11:35:06.556Z,63.07
2019-06-25T11:37:36.798Z,57.94
2019-06-25T11:40:07.145Z,63.09
2019-06-25T11:42:38.360Z,61.63
2019-06-25T11:45:09.389Z,63.11
2019-06-25T11:47:39.531Z,63.11
2019-06-25T11:50:10.370Z,60.21
2019-06-25T11:52:41.301Z,62.02
2019-06-25T11:55:11.556Z,61.10
2019-06-25T11:57:41.752Z,55.95
2019-06-25T12:00:13.014Z,59.72
2019-06-25T12:02:43.240Z,59.34
2019-06-25T12:05:13.601Z,59.66
2019-06-25T12:07:43.800Z,58.82
2019-06-25T12:10:14.976Z,55.97
2019-06-25T12:12:45.974Z,57.34
2019-06-25T12:15:16.379Z,54.44
2019-06-25T12:17:47.359Z,58.38
2019-06-25T12:20:17.727Z,58.95
2019-06-25T12:22:47.902Z,55.46
2019-06-25T12:25:18.163Z,56.83
2019-06-25T12:27:48.529Z,57.28
2019-06-25T12:30:18.865Z,56.19
2019-06-25T12:32:49.303Z,56.07
2019-06-25T12:35:20.592Z,55.51
2019-06-25T12:37:52.413Z,55.58
2019-06-25T12:40:22.758Z,53.73
2019-06-25T12:42:53.031Z,55.09
2019-06-25T12:45:23.245Z,56.27
2019-06-25T12:47:53.497Z,54.41
2019-06-25T12:50:24.806Z,51.07
2019-06-25T12:52:55.775Z,54.78
2019-06-25T12:55:26.081Z,54.97
2019-06-25T12:57:57.148Z,53.64
2019-06-25T13:00:28.612Z,56.08
2019-06-25T13:02:58.837Z,52.00
2019-06-25T13:05:29.090Z,54.38
2019-06-25T13:07:59.311Z,54.24
2019-06-25T13:10:43.118Z,54.88
2019-06-25T13:13:01.494Z,56.68
2019-06-25T13:15:31.694Z,51.06
2019-06-25T13:18:01.895Z,54.68
2019-06-25T13:20:32.035Z,51.58
2019-06-25T13:23:02.403Z,50.98
2019-06-25T13:25:33.582Z,51.00
2019-06-25T13:28:06.136Z,51.99
2019-06-25T13:30:36.400Z,51.78
2019-06-25T13:33:06.624Z,51.38
2019-06-25T13:35:36.922Z,51.69
2019-06-25T13:38:08.791Z,50.89
2019-06-25T13:40:39.010Z,52.06
2019-06-25T13:43:12.509Z,49.39
2019-06-25T13:45:42.838Z,51.46
2019-06-25T13:48:13.001Z,51.46
2019-06-25T13:50:43.945Z,49.69
2019-06-25T13:53:14.154Z,47.52
2019-06-25T13:55:44.321Z,49.91
2019-06-25T13:58:17.541Z,47.49
2019-06-25T14:00:47.815Z,47.72
2019-06-25T14:03:20.876Z,47.31
2019-06-25T14:05:51.058Z,43.34
2019-06-25T14:08:21.325Z,46.55
2019-06-25T14:10:51.497Z,43.25
2019-06-25T14:13:21.763Z,44.83
2019-06-25T14:15:52.048Z,42.65
2019-06-25T14:18:22.307Z,42.00
2019-06-25T14:20:52.524Z,40.96
2019-06-25T14:23:22.753Z,40.34
2019-06-25T14:26:08.939Z,41.38
2019-06-25T14:28:24.966Z,40.02
2019-06-25T14:30:55.946Z,39.56
2019-06-25T14:33:27.062Z,38.42
2019-06-25T14:35:58.287Z,39.19
2019-06-25T14:38:29.652Z,40.02
2019-06-25T14:40:59.870Z,39.61
2019-06-25T14:43:30.277Z,38.93
2019-06-25T14:46:00.513Z,39.08
2019-06-25T14:48:30.727Z,39.95
2019-06-25T14:51:00.959Z,38.46
2019-06-25T14:53:31.212Z,38.77
2019-06-25T14:56:01.459Z,37.60
2019-06-25T14:58:35.082Z,36.68
2019-06-25T15:01:06.123Z,37.46
2019-06-25T15:03:36.350Z,36.93
2019-06-25T15:06:06.966Z,36.43
2019-06-25T15:08:37.181Z,37.65
2019-06-25T15:11:07.459Z,37.92
2019-06-25T15:13:37.839Z,36.37
2019-06-25T15:16:08.062Z,36.37
2019-06-25T15:18:38.354Z,37.20
2019-06-25T15:21:10.163Z,35.34
2019-06-25T15:23:41.720Z,36.71
2019-06-25T15:26:12.449Z,37.66
2019-06-25T15:28:42.781Z,35.60
2019-06-25T15:31:13.744Z,36.69
2019-06-25T15:33:44.058Z,35.14
2019-06-25T15:36:15.010Z,35.19
2019-06-25T15:38:47.699Z,36.22
2019-06-25T15:41:17.235Z,36.82
2019-06-25T15:43:47.477Z,36.95
2019-06-25T15:46:17.683Z,36.40
2019-06-25T15:48:48.101Z,36.26
2019-06-25T15:51:20.701Z,37.48
2019-06-25T15:53:50.907Z,38.49
2019-06-25T15:56:21.891Z,38.01
2019-06-25T15:58:52.164Z,37.46
2019-06-25T16:01:24.172Z,36.82
2019-06-25T16:03:54.607Z,36.84
2019-06-25T16:06:25.049Z,38.13
2019-06-25T16:09:03.190Z,37.59
2019-06-25T16:11:27.392Z,37.43
2019-06-25T16:13:57.563Z,36.86
2019-06-25T16:16:29.315Z,37.40
2019-06-25T16:19:00.465Z,37.82
2019-06-25T16:21:30.614Z,38.98
2019-06-25T16:24:00.864Z,37.84
2019-06-25T16:26:33.987Z,38.81
2019-06-25T16:29:05.100Z,38.22
2019-06-25T16:31:36.904Z,39.92
2019-06-25T16:34:07.152Z,41.58
2019-06-25T16:36:37.613Z,41.16
2019-06-25T16:39:18.647Z,41.83
2019-06-25T16:41:41.960Z,43.07
2019-06-25T16:44:12.246Z,44.01
2019-06-25T16:46:42.627Z,43.15
2019-06-25T16:49:12.884Z,44.21
2019-06-25T16:51:43.107Z,43.44
2019-06-25T16:54:13.495Z,44.17
2019-06-25T16:56:43.799Z,44.00
2019-06-25T16:59:15.578Z,45.72
2019-06-25T17:01:45.790Z,46.16
